createdAt,value
2019-06-26T00:02:19.396Z,50.28
2019-06-26T00:04:50.072Z,50.37
2019-06-26T00:07:20.709Z,50.43
2019-06-26T00:09:50.990Z,50.50
2019-06-26T00:12:22.310Z,50.58
2019-06-26T00:14:52.601Z,50.68
2019-06-26T00:17:22.904Z,50.73
2019-06-26T00:19:53.305Z,50.80
2019-06-26T00:22:23.602Z,50.88
2019-06-26T00:24:53.875Z,50.95
2019-06-26T00:27:24.426Z,51.05
2019-06-26T00:29:56.890Z,51.11
2019-06-26T00:32:27.945Z,51.17
2019-06-26T00:34:58.616Z,51.24
2019-06-26T00:37:28.913Z,51.33
2019-06-26T00:39:59.206Z,51.42
2019-06-26T00:42:29.785Z,51.48
2019-06-26T00:45:00.073Z,51.56
2019-06-26T00:47:30.386Z,51.63
2019-06-26T00:50:01.296Z,51.72
2019-06-26T00:52:32.219Z,51.81
2019-06-26T00:55:05.602Z,51.87
2019-06-26T00:57:37.573Z,51.95
2019-06-26T01:00:10.797Z,52.04
2019-06-26T01:02:41.392Z,52.12
2019-06-26T01:05:13.525Z,52.19
2019-06-26T01:07:44.379Z,52.26
2019-06-26T01:10:15.272Z,52.35
2019-06-26T01:12:45.724Z,52.43
2019-06-26T01:15:17.278Z,52.48
2019-06-26T01:17:47.879Z,52.58
2019-06-26T01:20:18.559Z,52.65
2019-06-26T01:22:49.772Z,52.73
2019-06-26T01:25:21.857Z,52.81
2019-06-26T01:27:52.169Z,52.89
2019-06-26T01:30:23.782Z,52.96
2019-06-26T01:32:54.328Z,53.05
2019-06-26T01:35:25.919Z,53.12
2019-06-26T01:37:56.242Z,53.19
2019-06-26T01:40:28.465Z,53.25
2019-06-26T01:42:58.865Z,53.35
2019-06-26T01:45:29.452Z,53.44
2019-06-26T01:48:01.618Z,53.50
2019-06-26T01:50:33.379Z,53.59
2019-06-26T01:53:03.655Z,53.66
2019-06-26T01:55:34.684Z,53.73
2019-06-26T01:58:04.993Z,53.81
2019-06-26T02:00:36.792Z,53.88
2019-06-26T02:03:07.180Z,53.95
2019-06-26T02:05:37.496Z,54.04
2019-06-26T02:08:07.837Z,54.13
2019-06-26T02:10:39.907Z,54.18
2019-06-26T02:13:10.580Z,54.28
2019-06-26T02:15:40.947Z,54.35
2019-06-26T02:18:40.292Z,54.44
2019-06-26T02:21:10.703Z,54.52
2019-06-26T02:23:41.018Z,54.61
2019-06-26T02:26:11.948Z,54.68
2019-06-26T02:28:43.682Z,54.76
2019-06-26T02:31:14.749Z,54.82
2019-06-26T02:33:45.041Z,54.91
2019-06-26T02:36:15.341Z,55.00
2019-06-26T02:38:45.641Z,55.05
2019-06-26T02:41:15.958Z,55.13
2019-06-26T02:43:46.392Z,55.20
2019-06-26T02:46:17.540Z,55.29
2019-06-26T02:48:48.054Z,55.36
2019-06-26T02:51:18.674Z,55.45
2019-06-26T02:53:48.968Z,55.52
2019-06-26T02:56:20.157Z,55.62
2019-06-26T02:58:50.530Z,55.69
2019-06-26T03:01:22.167Z,55.75
2019-06-26T03:03:53.571Z,55.83
2019-06-26T03:06:23.864Z,55.92
2019-06-26T03:08:54.386Z,55.98
2019-06-26T03:11:29.727Z,56.07
2019-06-26T03:14:00.559Z,56.14
2019-06-26T03:16:30.886Z,56.20
2019-06-26T03:19:01.860Z,56.30
2019-06-26T03:21:33.653Z,56.35
2019-06-26T03:24:03.941Z,56.44
2019-06-26T03:26:34.261Z,56.52
2019-06-26T03:29:05.979Z,56.58
2019-06-26T03:31:36.271Z,56.68
2019-06-26T03:34:06.788Z,56.74
2019-06-26T03:36:37.445Z,56.83
2019-06-26T03:39:08.678Z,56.90
2019-06-26T03:41:39.038Z,56.95
2019-06-26T03:44:09.319Z,57.03
2019-06-26T03:46:39.630Z,57.11
2019-06-26T03:49:09.947Z,57.16
2019-06-26T03:51:40.371Z,57.25
2019-06-26T03:54:14.669Z,57.33
2019-06-26T03:56:44.980Z,57.39
2019-06-26T03:59:15.297Z,57.48
2019-06-26T04:01:48.385Z,57.55
2019-06-26T04:04:19.100Z,57.63
2019-06-26T04:06:49.732Z,57.69
2019-06-26T04:09:20.077Z,57.78
2019-06-26T04:11:51.481Z,57.86
2019-06-26T04:14:22.635Z,57.92
2019-06-26T04:16:52.931Z,58.01
2019-06-26T04:19:23.318Z,58.07
2019-06-26T04:21:53.623Z,58.13
2019-06-26T04:24:23.908Z,58.22
2019-06-26T04:26:54.184Z,58.30
2019-06-26T04:29:24.517Z,58.37
2019-06-26T04:31:54.837Z,58.41
2019-06-26T04:34:25.162Z,58.48
2019-06-26T04:36:55.612Z,58.58
2019-06-26T04:39:25.918Z,58.63
2019-06-26T04:41:56.271Z,58.69
2019-06-26T04:44:26.612Z,58.75
2019-06-26T04:46:57.244Z,58.82
2019-06-26T04:49:27.731Z,58.88
2019-06-26T04:51:58.754Z,58.94
2019-06-26T04:54:29.737Z,59.01
2019-06-26T04:57:00.280Z,59.07
2019-06-26T04:59:34.162Z,59.15
2019-06-26T05:02:06.736Z,59.21
2019-06-26T05:04:37.377Z,59.26
2019-06-26T05:07:08.054Z,59.35
2019-06-26T05:09:38.668Z,59.41
2019-06-26T05:12:08.992Z,59.50
2019-06-26T05:14:39.304Z,59.54
2019-06-26T05:17:10.339Z,59.62
2019-06-26T05:19:42.081Z,59.68
2019-06-26T05:22:12.421Z,59.73
2019-06-26T05:24:46.229Z,59.80
2019-06-26T05:27:18.389Z,59.87
2019-06-26T05:29:49.359Z,59.93
2019-06-26T05:32:20.873Z,60.01
2019-06-26T05:34:51.210Z,60.06
2019-06-26T05:37:21.510Z,60.14
2019-06-26T05:39:54.749Z,60.22
2019-06-26T05:42:25.007Z,60.27
2019-06-26T05:44:58.135Z,60.33
2019-06-26T05:47:29.395Z,60.40
2019-06-26T05:50:00.216Z,60.48
2019-06-26T05:52:30.594Z,60.54
2019-06-26T05:55:01.073Z,60.60
2019-06-26T05:57:31.382Z,60.66
2019-06-26T06:00:01.707Z,60.71
2019-06-26T06:02:32.058Z,60.79
2019-06-26T06:05:02.454Z,60.83
2019-06-26T06:07:33.927Z,60.89
2019-06-26T06:10:04.506Z,60.95
2019-06-26T06:12:34.801Z,61.00
2019-06-26T06:15:05.619Z,61.07
2019-06-26T06:17:35.915Z,61.13
2019-06-26T06:20:07.982Z,61.19
2019-06-26T06:22:38.294Z,61.24
2019-06-26T06:25:08.699Z,61.31
2019-06-26T06:27:41.494Z,61.34
2019-06-26T06:30:12.097Z,61.40
2019-06-26T06:32:43.998Z,61.47
2019-06-26T06:35:16.385Z,61.54
2019-06-26T06:37:46.665Z,61.55
2019-06-26T06:40:17.295Z,61.63
2019-06-26T06:42:48.126Z,61.70
2019-06-26T06:45:18.824Z,61.75
2019-06-26T06:47:50.104Z,61.81
2019-06-26T06:50:20.497Z,61.87
2019-06-26T06:52:50.798Z,61.92
2019-06-26T06:55:21.974Z,61.98
2019-06-26T06:57:52.701Z,62.02
2019-06-26T07:00:23.095Z,62.10
2019-06-26T07:02:54.468Z,62.13
2019-06-26T07:05:25.938Z,62.18
2019-06-26T07:07:56.229Z,62.23
2019-06-26T07:10:26.647Z,62.29
2019-06-26T07:12:57.009Z,62.33
2019-06-26T07:15:29.357Z,62.39
2019-06-26T07:18:00.065Z,62.45
2019-06-26T07:20:30.378Z,62.49
2019-06-26T07:23:04.817Z,62.54
2019-06-26T07:25:35.113Z,62.59
2019-06-26T07:28:05.486Z,62.65
2019-06-26T07:30:35.913Z,62.72
2019-06-26T07:33:06.372Z,62.78
2019-06-26T07:35:36.943Z,62.84
2019-06-26T07:38:18.281Z,62.88
2019-06-26T07:40:49.173Z,62.92
2019-06-26T07:43:20.694Z,62.97
2019-06-26T07:45:51.892Z,63.05
2019-06-26T07:48:23.693Z,63.07
2019-06-26T07:50:54.406Z,63.11
2019-06-26T07:53:24.714Z,63.17
2019-06-26T07:55:57.671Z,63.23
2019-06-26T07:58:28.411Z,63.26
2019-06-26T08:01:01.098Z,63.32
2019-06-26T08:03:31.461Z,63.40
2019-06-26T08:06:02.183Z,63.45
2019-06-26T08:08:32.687Z,63.49
2019-06-26T08:11:06.281Z,63.56
2019-06-26T08:13:35.029Z,63.59
2019-06-26T08:16:05.312Z,63.65
2019-06-26T08:18:35.908Z,63.71
2019-06-26T08:21:12.508Z,63.77
2019-06-26T08:23:38.184Z,63.79
2019-06-26T08:26:08.484Z,63.86
2019-06-26T08:28:38.821Z,63.92
2019-06-26T08:31:09.910Z,63.95
2019-06-26T08:33:40.246Z,64.02
2019-06-26T08:36:10.895Z,64.03
2019-06-26T08:38:41.212Z,64.12
2019-06-26T08:41:11.843Z,64.16
2019-06-26T08:43:42.280Z,64.20
2019-06-26T08:46:12.609Z,64.26
2019-06-26T08:48:44.060Z,64.32
2019-06-26T08:51:14.365Z,64.37
2019-06-26T08:53:45.039Z,64.40
2019-06-26T08:56:15.637Z,64.46
2019-06-26T08:58:46.365Z,64.50
2019-06-26T09:01:16.699Z,64.55
2019-06-26T09:03:47.399Z,64.60
2019-06-26T09:06:18.777Z,64.64
2019-06-26T09:08:49.172Z,64.69
2019-06-26T09:11:19.786Z,64.76
2019-06-26T09:13:50.129Z,64.80
2019-06-26T09:16:20.472Z,64.84
2019-06-26T09:19:03.055Z,64.90
2019-06-26T09:21:36.123Z,64.96
2019-06-26T09:24:06.590Z,65.01
2019-06-26T09:26:37.060Z,65.04
2019-06-26T09:29:07.669Z,65.09
2019-06-26T09:31:39.912Z,65.14
2019-06-26T09:34:10.306Z,65.18
2019-06-26T09:36:52.161Z,65.23
2019-06-26T09:39:22.471Z,65.28
2019-06-26T09:41:52.792Z,65.32
2019-06-26T09:44:23.839Z,65.38
2019-06-26T09:46:54.148Z,65.43
2019-06-26T09:49:24.746Z,65.49
2019-06-26T09:51:55.069Z,65.51
2019-06-26T09:54:25.361Z,65.57
2019-06-26T09:56:56.641Z,65.61
2019-06-26T09:59:29.595Z,65.67
2019-06-26T10:01:59.915Z,65.69
2019-06-26T10:04:30.308Z,65.73
2019-06-26T10:07:01.137Z,65.78
2019-06-26T10:09:31.538Z,65.82
2019-06-26T10:12:01.862Z,65.88
2019-06-26T10:14:46.467Z,65.92
2019-06-26T10:17:04.174Z,65.95
2019-06-26T10:19:35.405Z,65.99
2019-06-26T10:22:10.047Z,66.08
2019-06-26T10:24:40.343Z,66.12
2019-06-26T10:27:10.666Z,66.18
2019-06-26T10:29:40.944Z,66.24
2019-06-26T10:34:43.303Z,66.34
2019-06-26T10:37:13.640Z,66.41
2019-06-26T10:39:44.042Z,66.40
2019-06-26T10:42:14.430Z,66.46
2019-06-26T10:44:45.187Z,66.50
2019-06-26T10:47:17.558Z,66.53
2019-06-26T10:49:47.808Z,66.57
2019-06-26T10:52:18.227Z,66.61
2019-06-26T10:54:48.536Z,66.66
2019-06-26T10:57:19.252Z,66.69
2019-06-26T10:59:49.720Z,66.74
2019-06-26T11:02:19.986Z,66.77
2019-06-26T11:04:50.425Z,66.82
2019-06-26T11:07:20.916Z,66.88
2019-06-26T11:09:51.284Z,66.91
2019-06-26T11:12:22.137Z,66.95
2019-06-26T11:14:53.077Z,66.99
2019-06-26T11:17:23.689Z,67.05
2019-06-26T11:19:55.572Z,67.08
2019-06-26T11:22:28.671Z,67.12
2019-06-26T11:24:59.056Z,67.18
2019-06-26T11:27:29.385Z,67.19
2019-06-26T11:30:00.652Z,67.26
2019-06-26T11:32:31.048Z,67.31
2019-06-26T11:35:01.371Z,67.35
2019-06-26T11:37:32.025Z,67.41
2019-06-26T11:40:02.380Z,67.44
2019-06-26T11:42:33.169Z,67.49
2019-06-26T11:45:03.501Z,67.54
2019-06-26T11:47:34.128Z,67.58
2019-06-26T11:50:05.611Z,67.63
2019-06-26T11:52:37.457Z,67.66
2019-06-26T11:55:10.223Z,67.73
2019-06-26T11:57:40.600Z,67.77
2019-06-26T12:00:12.825Z,67.82
2019-06-26T12:02:43.116Z,67.85
2019-06-26T12:05:13.968Z,67.91
2019-06-26T12:07:44.295Z,67.92
2019-06-26T12:10:15.891Z,67.95
2019-06-26T12:12:46.863Z,67.99
2019-06-26T12:15:19.328Z,68.05
2019-06-26T12:17:51.070Z,68.08
2019-06-26T12:20:23.167Z,68.11
2019-06-26T12:22:54.628Z,68.15
2019-06-26T12:25:25.951Z,68.17
2019-06-26T12:27:56.154Z,68.19
2019-06-26T12:30:26.480Z,68.25
2019-06-26T12:33:03.064Z,68.27
2019-06-26T12:35:36.745Z,68.30
2019-06-26T12:38:07.109Z,68.33
2019-06-26T12:40:49.287Z,68.39
2019-06-26T12:43:20.886Z,68.41
2019-06-26T12:45:51.165Z,68.47
2019-06-26T12:48:22.573Z,68.52
2019-06-26T12:50:52.973Z,68.53
2019-06-26T12:53:23.445Z,68.57
2019-06-26T12:55:55.205Z,68.58
2019-06-26T12:58:25.618Z,68.64
2019-06-26T13:00:57.473Z,68.66
2019-06-26T13:03:27.980Z,68.72
2019-06-26T13:05:58.484Z,68.73
2019-06-26T13:08:30.399Z,68.76
2019-06-26T13:11:00.729Z,68.81
2019-06-26T13:13:31.553Z,68.83
2019-06-26T13:16:01.852Z,68.87
2019-06-26T13:18:33.139Z,68.89
2019-06-26T13:21:05.258Z,68.90
2019-06-26T13:23:36.105Z,68.97
2019-06-26T13:26:06.962Z,69.01
2019-06-26T13:28:39.013Z,69.03
2019-06-26T13:31:09.749Z,69.07
2019-06-26T13:34:21.177Z,69.12
2019-06-26T13:36:56.479Z,69.16
2019-06-26T13:39:49.341Z,69.23
2019-06-26T13:42:46.395Z,69.24
2019-06-26T13:45:23.869Z,69.30
2019-06-26T13:47:55.750Z,69.33
2019-06-26T13:51:08.280Z,69.38
2019-06-26T13:53:59.770Z,69.41
2019-06-26T13:57:15.022Z,69.47
2019-06-26T14:00:14.501Z,69.54
2019-06-26T14:02:57.589Z,69.60
2019-06-26T14:05:53.089Z,69.61
2019-06-26T14:11:47.509Z,69.70
2019-06-26T14:14:20.548Z,69.76
2019-06-26T14:16:51.062Z,69.79
2019-06-26T14:19:21.537Z,69.82
2019-06-26T14:21:52.546Z,69.85
2019-06-26T14:24:23.996Z,69.89
2019-06-26T14:26:54.782Z,69.89
2019-06-26T14:29:28.371Z,69.88
2019-06-26T14:31:58.778Z,69.91
2019-06-26T14:34:29.886Z,69.95
2019-06-26T14:37:00.502Z,69.96
2019-06-26T14:39:30.928Z,69.99
2019-06-26T14:42:04.296Z,70.02
2019-06-26T14:44:34.582Z,70.04
2019-06-26T14:47:04.985Z,70.09
2019-06-26T14:49:35.304Z,70.13
2019-06-26T14:52:05.686Z,70.14
2019-06-26T14:54:39.373Z,70.18
2019-06-26T14:57:09.756Z,70.21
2019-06-26T14:59:40.884Z,70.23
2019-06-26T15:02:11.078Z,70.25
2019-06-26T15:04:46.161Z,70.26
2019-06-26T15:07:16.660Z,70.30
2019-06-26T15:09:53.228Z,70.29
2019-06-26T15:12:27.236Z,70.32
2019-06-26T15:14:58.860Z,70.34
2019-06-26T15:17:29.396Z,70.39
2019-06-26T15:20:02.375Z,70.45
2019-06-26T15:22:33.023Z,70.50
2019-06-26T15:25:06.567Z,70.54
2019-06-26T15:27:39.467Z,70.56
2019-06-26T15:30:13.274Z,70.59
2019-06-26T15:32:43.591Z,70.63
2019-06-26T15:35:51.735Z,70.65
2019-06-26T15:38:46.351Z,70.69
2019-06-26T15:41:15.288Z,70.73
2019-06-26T15:43:48.572Z,70.77
2019-06-26T15:46:19.928Z,70.81
2019-06-26T15:48:50.629Z,70.84
2019-06-26T15:51:24.337Z,70.87
2019-06-26T15:53:59.873Z,70.89
2019-06-26T15:56:28.847Z,70.90
2019-06-26T15:58:59.162Z,70.91
2019-06-26T16:01:33.280Z,70.95
2019-06-26T16:04:03.629Z,70.97
2019-06-26T16:06:35.263Z,71.04
2019-06-26T16:09:07.440Z,71.04
2019-06-26T16:11:37.807Z,71.08
2019-06-26T16:14:10.101Z,71.14
2019-06-26T16:16:42.214Z,71.12
2019-06-26T16:19:15.599Z,71.14
2019-06-26T16:21:46.695Z,71.17
2019-06-26T16:24:18.436Z,71.16
2019-06-26T16:26:49.995Z,71.17
2019-06-26T16:29:20.661Z,71.15
2019-06-26T16:31:50.992Z,71.17
2019-06-26T16:34:21.410Z,71.19
2019-06-26T16:36:51.585Z,71.21
2019-06-26T16:39:23.264Z,71.24
2019-06-26T16:41:53.927Z,71.24
2019-06-26T16:44:24.266Z,71.27
2019-06-26T16:46:54.591Z,71.28
2019-06-26T16:49:27.477Z,71.29
2019-06-26T16:51:59.307Z,71.31
2019-06-26T16:54:29.815Z,71.32
2019-06-26T16:57:01.638Z,71.34
2019-06-26T16:59:32.458Z,71.36
2019-06-26T17:02:07.038Z,71.37
2019-06-26T17:04:36.381Z,71.44
2019-06-26T17:07:09.120Z,71.43
2019-06-26T17:09:39.580Z,71.45
2019-06-26T17:12:11.095Z,71.46
2019-06-26T17:14:42.907Z,71.48
2019-06-26T17:17:14.197Z,71.51
2019-06-26T17:19:44.874Z,71.53
2019-06-26T17:22:15.255Z,71.52
2019-06-26T17:24:46.164Z,71.55
2019-06-26T17:27:16.558Z,71.58
2019-06-26T17:29:49.250Z,71.59
2019-06-26T17:32:19.977Z,71.63
2019-06-26T17:34:50.674Z,71.65
2019-06-26T17:37:21.033Z,71.69
2019-06-26T17:39:51.409Z,71.71
2019-06-26T17:42:21.827Z,71.73
2019-06-26T17:44:52.454Z,71.75
2019-06-26T17:47:22.808Z,71.80
2019-06-26T17:49:53.237Z,71.83
2019-06-26T17:52:23.662Z,71.87
2019-06-26T17:54:54.071Z,71.88
2019-06-26T17:57:24.814Z,71.92
2019-06-26T17:59:55.219Z,71.92
2019-06-26T18:02:25.519Z,71.94
2019-06-26T18:04:56.147Z,71.96
2019-06-26T18:07:26.415Z,71.99
2019-06-26T18:09:56.814Z,72.01
2019-06-26T18:12:28.553Z,72.02
2019-06-26T18:15:00.003Z,72.04
2019-06-26T18:17:30.956Z,72.04
2019-06-26T18:20:01.336Z,72.09
2019-06-26T18:22:32.778Z,72.10
2019-06-26T18:25:04.878Z,72.12
2019-06-26T18:27:35.644Z,72.14
2019-06-26T18:30:08.803Z,72.16
2019-06-26T18:32:39.224Z,72.14
2019-06-26T18:35:09.547Z,72.18
2019-06-26T18:37:39.952Z,72.17
2019-06-26T18:40:12.931Z,72.18
2019-06-26T18:42:43.387Z,72.19
2019-06-26T18:45:13.844Z,72.21
2019-06-26T18:47:44.191Z,72.20
2019-06-26T18:50:14.929Z,72.21
2019-06-26T18:52:45.229Z,72.24
2019-06-26T18:55:15.674Z,72.26
2019-06-26T18:57:46.094Z,72.27
2019-06-26T19:00:21.011Z,72.29
2019-06-26T19:02:51.423Z,72.32
2019-06-26T19:05:22.369Z,72.33
2019-06-26T19:07:52.668Z,72.36
2019-06-26T19:10:23.013Z,72.36
2019-06-26T19:12:54.262Z,72.38
2019-06-26T19:15:24.613Z,72.39
2019-06-26T19:17:54.990Z,72.40
2019-06-26T19:20:25.622Z,72.44
2019-06-26T19:22:56.312Z,72.45
2019-06-26T19:25:26.676Z,72.47
2019-06-26T19:27:57.417Z,72.49
2019-06-26T19:30:27.800Z,72.50
2019-06-26T19:32:58.264Z,72.53
2019-06-26T19:35:28.678Z,72.56
2019-06-26T19:37:59.096Z,72.59
2019-06-26T19:40:29.329Z,72.60
2019-06-26T19:42:59.737Z,72.61
2019-06-26T19:45:29.994Z,72.64
2019-06-26T19:48:00.368Z,72.67
2019-06-26T19:50:30.699Z,72.70
2019-06-26T19:53:01.035Z,72.70
2019-06-26T19:55:31.347Z,72.74
2019-06-26T19:58:01.700Z,72.75
2019-06-26T20:00:32.027Z,72.76
2019-06-26T20:03:02.369Z,72.80
2019-06-26T20:05:33.125Z,72.83
2019-06-26T20:08:03.459Z,72.85
2019-06-26T20:10:33.901Z,72.86
2019-06-26T20:13:04.254Z,72.88
2019-06-26T20:15:35.766Z,72.92
2019-06-26T20:18:06.214Z,72.95
2019-06-26T20:20:36.619Z,72.97
2019-06-26T20:23:06.948Z,73.01
2019-06-26T20:25:37.407Z,73.03
2019-06-26T20:28:08.427Z,73.05
2019-06-26T20:30:39.876Z,73.07
2019-06-26T20:33:10.243Z,73.10
2019-06-26T20:35:40.632Z,73.12
2019-06-26T20:38:10.974Z,73.18
2019-06-26T20:40:41.296Z,73.23
2019-06-26T20:43:12.085Z,73.23
2019-06-26T20:45:42.442Z,73.28
2019-06-26T20:48:13.522Z,73.31
2019-06-26T20:50:44.667Z,73.32
2019-06-26T20:53:15.055Z,73.37
2019-06-26T20:55:45.335Z,73.38
2019-06-26T20:58:15.914Z,73.43
2019-06-26T21:00:46.292Z,73.47
2019-06-26T21:03:16.941Z,73.50
2019-06-26T21:05:47.937Z,73.54
2019-06-26T21:08:18.294Z,73.56
2019-06-26T21:10:48.728Z,73.58
2019-06-26T21:13:19.527Z,73.63
2019-06-26T21:15:52.941Z,73.66
2019-06-26T21:18:21.950Z,73.68
2019-06-26T21:20:52.652Z,73.72
2019-06-26T21:23:23.781Z,73.75
2019-06-26T21:25:54.086Z,73.77
2019-06-26T21:28:24.957Z,73.81
2019-06-26T21:30:55.678Z,73.83
2019-06-26T21:33:26.811Z,73.88
2019-06-26T21:35:57.129Z,73.90
2019-06-26T21:38:27.769Z,73.93
2019-06-26T21:40:58.400Z,73.96
2019-06-26T21:43:29.313Z,73.98
2019-06-26T21:45:59.644Z,74.00
2019-06-26T21:48:30.407Z,74.05
2019-06-26T21:51:00.699Z,74.07
2019-06-26T21:53:33.346Z,74.10
2019-06-26T21:56:04.964Z,74.13
2019-06-26T21:58:35.483Z,74.17
2019-06-26T22:01:05.788Z,74.19
2019-06-26T22:03:36.702Z,74.23
2019-06-26T22:06:07.018Z,74.26
2019-06-26T22:08:40.041Z,74.27
2019-06-26T22:11:10.647Z,74.32
2019-06-26T22:13:40.972Z,74.34
2019-06-26T22:16:12.160Z,74.38
2019-06-26T22:18:42.532Z,74.42
2019-06-26T22:21:12.854Z,74.46
2019-06-26T22:23:43.181Z,74.48
2019-06-26T22:26:15.597Z,74.52
2019-06-26T22:28:46.257Z,74.55
2019-06-26T22:31:16.642Z,74.58
2019-06-26T22:33:47.214Z,74.60
2019-06-26T22:36:17.534Z,74.65
2019-06-26T22:38:47.857Z,74.67
2019-06-26T22:41:18.501Z,74.71
2019-06-26T22:43:49.284Z,74.74
2019-06-26T22:46:20.289Z,74.77
2019-06-26T22:48:52.028Z,74.78
2019-06-26T22:51:22.351Z,74.83
2019-06-26T22:53:52.797Z,74.87
2019-06-26T22:56:23.246Z,74.90
2019-06-26T22:58:54.015Z,74.93
2019-06-26T23:01:24.371Z,74.95
2019-06-26T23:03:54.723Z,74.99
2019-06-26T23:06:25.020Z,75.02
2019-06-26T23:08:55.418Z,75.05
2019-06-26T23:11:26.152Z,75.11
2019-06-26T23:13:56.456Z,75.12
2019-06-26T23:16:27.149Z,75.16
2019-06-26T23:18:57.817Z,75.19
2019-06-26T23:21:28.307Z,75.22
2019-06-26T23:23:59.816Z,75.25
2019-06-26T23:26:30.485Z,75.27
2019-06-26T23:29:00.827Z,75.29
2019-06-26T23:31:31.188Z,75.34
2019-06-26T23:34:01.563Z,75.37
2019-06-26T23:36:32.877Z,75.39
2019-06-26T23:39:03.779Z,75.43
2019-06-26T23:41:34.087Z,75.43
2019-06-26T23:44:04.469Z,75.48
2019-06-26T23:46:34.752Z,75.51
2019-06-26T23:49:05.436Z,75.52
2019-06-26T23:51:36.344Z,75.54
2019-06-26T23:54:06.692Z,75.55
2019-06-26T23:56:40.670Z,75.58
2019-06-26T23:59:09.054Z,75.59
